Terminal Aerodrome Forecast
Issued by NWS

Home | Current Version | Previous Version | Text Only | Print | Product List | Glossary On
Versions: 1 2 3 4 5 6 7 8 9 10 11 12 13 14
725
FTUS45 KABQ 281739
TAFROW
TAF
KROW 281739Z 2818/2918 22013G23KT P6SM SCT200
     FM282100 20020G30KT P6SM SCT200
     FM290200 23011KT P6SM SCT200
     FM291330 25013G23KT P6SM SKC=

USA.gov is the U.S. government's official web portal to all federal, state and local government web resources and services.